Port Clinton, Ohio
Current Conditions -  °F | °C
As of 5:33 PM on Monday 26 Jan 2015 (Local Time) from KPCW Reporting Station
Clear Clear  
Wind Chill: 16°   Ceiling: Unl
Heat Index: 16°   Visibility: 10mi
Dew Point:   Wind: 0mph
Humidity: 73%   Direction: NA
Pressure: 29.92"   Gusts: NA
Location:  41.51°N, 82.94°W
Report Text: KPCW 262233Z AUTO 00000KT 10SM CLR M09/M13 A2992 RMK AO2 $
Loading
Personal Weather Stations






























Interactive Weather Map New forecast layout! Learn more

10-Day Weather Forecast

Advertisements
Track Severe Weather on mobile